createdAt,value
2023-02-11T00:02:17.518Z,3.89
2023-02-11T00:04:45.097Z,3.86
2023-02-11T00:07:12.610Z,3.92
2023-02-11T00:09:41.451Z,3.84
2023-02-11T00:12:08.931Z,3.92
2023-02-11T00:14:36.448Z,3.92
2023-02-11T00:17:03.976Z,3.97
2023-02-11T00:19:31.732Z,3.97
2023-02-11T00:21:59.224Z,3.76
2023-02-11T00:24:26.730Z,3.72
2023-02-11T00:26:56.582Z,3.85
2023-02-11T00:29:24.101Z,3.76
2023-02-11T00:31:51.769Z,4.00
2023-02-11T00:34:19.459Z,3.92
2023-02-11T00:36:46.928Z,3.92
2023-02-11T00:39:14.482Z,3.75
2023-02-11T00:41:42.032Z,3.88
2023-02-11T00:44:10.818Z,4.06
2023-02-11T00:46:38.346Z,3.99
2023-02-11T00:49:05.876Z,3.98
2023-02-11T00:51:33.382Z,3.99
2023-02-11T00:54:00.855Z,4.12
2023-02-11T00:56:28.398Z,4.08
2023-02-11T00:58:55.902Z,4.34
2023-02-11T01:01:24.978Z,3.93
2023-02-11T01:03:52.560Z,4.19
2023-02-11T01:06:20.097Z,4.08
2023-02-11T01:08:47.618Z,4.36
2023-02-11T01:11:16.847Z,4.46
2023-02-11T01:13:44.462Z,4.36
2023-02-11T01:16:12.652Z,4.32
2023-02-11T01:18:44.225Z,4.46
2023-02-11T01:21:11.810Z,4.06
2023-02-11T01:23:39.324Z,4.34
2023-02-11T01:26:06.841Z,3.97
2023-02-11T01:28:34.592Z,4.26
2023-02-11T01:31:02.814Z,4.54
2023-02-11T01:33:30.383Z,4.43
2023-02-11T01:36:02.772Z,4.50
2023-02-11T01:38:30.591Z,4.56
2023-02-11T01:41:00.228Z,4.51
2023-02-11T01:43:35.830Z,4.42
2023-02-11T01:46:22.391Z,4.44
2023-02-11T01:48:51.699Z,4.50
2023-02-11T01:51:23.535Z,4.50
2023-02-11T01:54:09.753Z,4.30
2023-02-11T01:56:58.709Z,4.25
2023-02-11T01:59:30.689Z,4.47
2023-02-11T02:02:01.170Z,4.29
2023-02-11T02:04:31.558Z,4.48
2023-02-11T02:07:03.911Z,4.58
2023-02-11T02:09:35.571Z,4.43
2023-02-11T02:12:03.089Z,4.50
2023-02-11T02:14:30.601Z,4.64
2023-02-11T02:16:58.071Z,4.51
2023-02-11T02:19:54.509Z,4.21
2023-02-11T02:22:42.215Z,4.53
2023-02-11T02:25:29.128Z,4.49
2023-02-11T02:28:02.837Z,4.76
2023-02-11T02:30:47.907Z,4.78
2023-02-11T02:33:31.886Z,4.83
2023-02-11T02:36:09.095Z,4.69
2023-02-11T02:38:39.434Z,4.70
2023-02-11T02:41:09.367Z,4.82
2023-02-11T02:43:44.143Z,4.83
2023-02-11T02:46:17.722Z,4.87
2023-02-11T02:48:49.346Z,4.93
2023-02-11T02:51:46.987Z,4.93
2023-02-11T02:54:58.950Z,4.91
2023-02-11T02:57:31.817Z,4.87
2023-02-11T03:00:12.262Z,5.02
2023-02-11T03:02:46.111Z,4.82
2023-02-11T03:05:18.773Z,4.74
2023-02-11T03:07:51.828Z,4.94
2023-02-11T03:10:20.663Z,4.61
2023-02-11T03:12:49.653Z,5.06
2023-02-11T03:15:18.818Z,5.15
2023-02-11T03:17:49.014Z,5.13
2023-02-11T03:20:19.914Z,5.13
2023-02-11T03:22:50.685Z,4.86
2023-02-11T03:25:18.491Z,5.07
2023-02-11T03:27:48.840Z,5.00
2023-02-11T03:30:19.704Z,5.10
2023-02-11T03:32:51.055Z,5.05
2023-02-11T03:35:23.160Z,5.04
2023-02-11T03:37:53.083Z,5.17
2023-02-11T03:40:22.517Z,5.05
2023-02-11T03:42:55.298Z,5.01
2023-02-11T03:45:24.460Z,5.06
2023-02-11T03:47:55.391Z,5.07
2023-02-11T03:50:24.625Z,5.01
2023-02-11T03:52:52.706Z,5.09
2023-02-11T03:55:21.934Z,5.16
2023-02-11T03:57:49.420Z,5.10
2023-02-11T04:00:17.141Z,5.16
2023-02-11T04:02:45.354Z,5.06
2023-02-11T04:05:15.626Z,4.98
2023-02-11T04:07:44.423Z,5.18
2023-02-11T04:10:13.200Z,5.17
2023-02-11T04:12:40.672Z,5.06
2023-02-11T04:15:08.686Z,5.10
2023-02-11T04:17:36.335Z,5.02
2023-02-11T04:20:04.081Z,4.94
2023-02-11T04:22:31.610Z,5.11
2023-02-11T04:25:00.390Z,5.03
2023-02-11T04:27:27.867Z,5.12
2023-02-11T04:29:55.369Z,4.83
2023-02-11T04:32:22.860Z,5.00
2023-02-11T04:34:50.433Z,5.07
2023-02-11T04:37:17.931Z,5.08
2023-02-11T04:39:45.407Z,5.17
2023-02-11T04:42:14.535Z,5.21
2023-02-11T04:47:09.588Z,5.22
2023-02-11T04:49:37.070Z,5.19
2023-02-11T04:52:05.077Z,5.16
2023-02-11T04:54:32.605Z,5.15
2023-02-11T04:57:00.102Z,5.18
2023-02-11T04:59:28.952Z,5.16
2023-02-11T05:01:56.854Z,5.01
2023-02-11T05:04:24.483Z,5.17
2023-02-11T05:06:52.319Z,5.16
2023-02-11T05:09:19.856Z,5.23
2023-02-11T05:11:47.371Z,4.95
2023-02-11T05:14:14.833Z,5.15
2023-02-11T05:16:43.745Z,5.25
2023-02-11T05:19:11.266Z,5.26
2023-02-11T05:21:40.062Z,5.31
2023-02-11T05:24:09.134Z,4.93
2023-02-11T05:26:36.846Z,5.14
2023-02-11T05:29:04.352Z,5.13
2023-02-11T05:31:32.734Z,5.22
2023-02-11T05:34:03.824Z,5.28
2023-02-11T05:36:33.494Z,5.13
2023-02-11T05:39:01.094Z,5.10
2023-02-11T05:41:28.615Z,5.28
2023-02-11T05:43:56.120Z,5.09
2023-02-11T05:46:23.650Z,5.17
2023-02-11T05:48:51.186Z,5.34
2023-02-11T05:51:20.008Z,5.27
2023-02-11T05:53:47.517Z,5.23
2023-02-11T05:56:15.301Z,5.32
2023-02-11T05:58:43.029Z,5.22
2023-02-11T06:01:10.620Z,5.25
2023-02-11T06:03:38.152Z,5.03
2023-02-11T06:06:06.752Z,5.22
2023-02-11T06:08:37.575Z,5.26
2023-02-11T06:11:06.616Z,5.19
2023-02-11T06:13:34.131Z,5.35
2023-02-11T06:16:03.041Z,5.17
2023-02-11T06:18:30.621Z,5.16
2023-02-11T06:20:58.082Z,5.30
2023-02-11T06:23:26.003Z,5.30
2023-02-11T06:25:55.834Z,5.11
2023-02-11T06:28:23.388Z,5.30
2023-02-11T06:30:50.952Z,5.27
2023-02-11T06:33:18.443Z,5.28
2023-02-11T06:35:45.938Z,5.34
2023-02-11T06:38:13.458Z,5.25
2023-02-11T06:40:41.034Z,5.32
2023-02-11T06:43:09.830Z,5.30
2023-02-11T06:45:37.550Z,5.29
2023-02-11T06:48:05.066Z,5.33
2023-02-11T06:50:32.544Z,5.34
2023-02-11T06:53:00.233Z,5.28
2023-02-11T06:55:27.782Z,5.36
2023-02-11T06:57:55.283Z,5.46
2023-02-11T07:00:24.170Z,5.34
2023-02-11T07:02:51.795Z,5.32
2023-02-11T07:05:19.496Z,5.29
2023-02-11T07:07:47.273Z,5.44
2023-02-11T07:10:14.754Z,5.39
2023-02-11T07:12:42.497Z,5.34
2023-02-11T07:15:10.135Z,5.37
2023-02-11T07:17:38.966Z,5.27
2023-02-11T07:20:07.100Z,5.35
2023-02-11T07:22:35.055Z,5.35
2023-02-11T07:25:02.572Z,5.40
2023-02-11T07:27:30.120Z,5.31
2023-02-11T07:29:57.608Z,5.52
2023-02-11T07:32:25.103Z,5.48
2023-02-11T07:34:53.944Z,5.55
2023-02-11T07:37:21.529Z,5.60
2023-02-11T07:39:49.040Z,5.46
2023-02-11T07:42:16.539Z,5.58
2023-02-11T07:44:44.055Z,5.57
2023-02-11T07:47:11.565Z,5.56
2023-02-11T07:49:39.038Z,5.48
2023-02-11T07:52:07.888Z,5.58
2023-02-11T07:54:35.365Z,5.52
2023-02-11T07:57:02.852Z,5.54
2023-02-11T07:59:30.732Z,5.49
2023-02-11T08:01:58.308Z,5.49
2023-02-11T08:04:25.996Z,5.57
2023-02-11T08:06:57.903Z,5.65
2023-02-11T08:09:27.906Z,5.59
2023-02-11T08:11:55.372Z,5.65
2023-02-11T08:14:25.110Z,5.57
2023-02-11T08:16:52.627Z,5.58
2023-02-11T08:19:20.188Z,5.61
2023-02-11T08:21:47.956Z,5.61
2023-02-11T08:24:15.735Z,5.63
2023-02-11T08:26:44.845Z,5.73
2023-02-11T08:29:14.023Z,5.57
2023-02-11T08:31:44.813Z,5.72
2023-02-11T08:34:14.260Z,5.73
2023-02-11T08:36:43.388Z,5.80
2023-02-11T08:39:19.981Z,5.78
2023-02-11T08:41:51.199Z,5.80
2023-02-11T08:44:19.128Z,5.72
2023-02-11T08:46:46.955Z,5.80
2023-02-11T08:49:15.007Z,5.84
2023-02-11T08:51:42.703Z,5.88
2023-02-11T08:54:10.462Z,5.92
2023-02-11T08:56:38.831Z,5.97
2023-02-11T08:59:09.251Z,5.96
2023-02-11T09:01:36.936Z,5.90
2023-02-11T09:04:04.559Z,5.93
2023-02-11T09:06:32.785Z,5.94
2023-02-11T09:09:00.316Z,5.84
2023-02-11T09:11:30.770Z,5.92
2023-02-11T09:13:58.663Z,5.97
2023-02-11T09:16:29.683Z,6.04
2023-02-11T09:18:57.826Z,5.98
2023-02-11T09:21:25.421Z,6.00
2023-02-11T09:23:53.430Z,6.11
2023-02-11T09:26:22.846Z,5.88
2023-02-11T09:28:51.269Z,6.19
2023-02-11T09:31:20.609Z,6.19
2023-02-11T09:33:51.897Z,6.06
2023-02-11T09:36:21.576Z,6.17
2023-02-11T09:38:49.553Z,6.13
2023-02-11T09:41:56.086Z,6.19
2023-02-11T09:44:26.162Z,6.11
2023-02-11T09:46:56.410Z,6.00
2023-02-11T09:49:30.539Z,6.15
2023-02-11T09:52:00.866Z,6.16
2023-02-11T09:54:31.111Z,6.08
2023-02-11T09:56:58.590Z,6.24
2023-02-11T09:59:26.205Z,6.35
2023-02-11T10:01:56.457Z,6.15
2023-02-11T10:04:37.873Z,6.29
2023-02-11T10:07:09.018Z,6.26
2023-02-11T10:09:49.878Z,6.27
2023-02-11T10:12:29.967Z,6.35
2023-02-11T10:15:29.908Z,6.22
2023-02-11T10:18:06.527Z,6.27
2023-02-11T10:20:38.664Z,6.38
2023-02-11T10:23:11.338Z,6.29
2023-02-11T10:25:41.299Z,6.29
2023-02-11T10:28:15.062Z,6.46
2023-02-11T10:30:45.137Z,6.41
2023-02-11T10:33:17.880Z,6.53
2023-02-11T10:35:46.932Z,6.54
2023-02-11T10:38:14.379Z,6.51
2023-02-11T10:40:42.300Z,6.54
2023-02-11T10:43:12.853Z,6.45
2023-02-11T10:45:43.492Z,6.55
2023-02-11T10:48:42.407Z,6.52
2023-02-11T10:51:17.478Z,6.38
2023-02-11T10:53:45.369Z,6.56
2023-02-11T10:56:21.389Z,6.62
2023-02-11T10:58:56.373Z,6.61
2023-02-11T11:01:25.114Z,6.65
2023-02-11T11:03:53.852Z,6.51
2023-02-11T11:06:31.996Z,6.57
2023-02-11T11:08:59.820Z,6.57
2023-02-11T11:11:27.960Z,6.64
2023-02-11T11:13:59.116Z,6.64
2023-02-11T11:16:28.337Z,6.59
2023-02-11T11:19:21.445Z,6.69
2023-02-11T11:21:51.642Z,6.66
2023-02-11T11:24:21.348Z,6.53
2023-02-11T11:26:50.300Z,6.56
2023-02-11T11:29:20.620Z,6.57
2023-02-11T11:31:51.113Z,6.69
2023-02-11T11:34:24.219Z,6.72
2023-02-11T11:36:53.051Z,6.74
2023-02-11T11:39:23.823Z,6.65
2023-02-11T11:41:53.612Z,6.80
2023-02-11T11:44:29.080Z,6.70
2023-02-11T11:47:16.935Z,6.86
2023-02-11T11:49:48.567Z,6.85
2023-02-11T11:52:23.357Z,6.86
2023-02-11T11:54:57.242Z,6.60
2023-02-11T11:57:28.631Z,6.87
2023-02-11T11:59:56.755Z,6.79
2023-02-11T12:02:43.882Z,6.81
2023-02-11T12:05:13.125Z,6.69
2023-02-11T12:07:52.830Z,6.57
2023-02-11T12:10:30.714Z,6.71
2023-02-11T12:13:06.666Z,6.54
2023-02-11T12:15:39.256Z,6.81
2023-02-11T12:18:18.873Z,6.73
2023-02-11T12:20:59.811Z,6.90
2023-02-11T12:23:37.666Z,6.78
2023-02-11T12:26:12.470Z,6.77
2023-02-11T12:28:47.130Z,6.37
2023-02-11T12:31:27.980Z,6.33
2023-02-11T12:34:05.935Z,6.66
2023-02-11T12:36:46.460Z,6.68
2023-02-11T12:39:27.129Z,6.86
2023-02-11T12:42:36.185Z,6.62
2023-02-11T12:45:23.391Z,6.70
2023-02-11T12:48:01.944Z,6.74
2023-02-11T12:50:36.974Z,6.65
2023-02-11T12:53:20.500Z,6.45
2023-02-11T12:55:52.865Z,6.66
2023-02-11T12:58:29.680Z,6.40
2023-02-11T13:01:07.035Z,6.91
2023-02-11T13:03:38.787Z,6.84
2023-02-11T13:06:08.918Z,6.84
2023-02-11T13:08:38.566Z,6.85
2023-02-11T13:11:14.286Z,6.65
2023-02-11T13:13:48.549Z,6.79
2023-02-11T13:16:32.773Z,6.88
2023-02-11T13:19:04.401Z,6.73
2023-02-11T13:21:42.364Z,6.69
2023-02-11T13:24:17.880Z,6.88
2023-02-11T13:26:54.744Z,6.87
2023-02-11T13:29:33.759Z,7.08
2023-02-11T13:32:08.311Z,7.13
2023-02-11T13:34:55.554Z,7.14
2023-02-11T13:37:26.336Z,6.96
2023-02-11T13:39:59.161Z,6.99
2023-02-11T13:42:28.452Z,7.10
2023-02-11T13:44:56.535Z,7.14
2023-02-11T13:47:29.362Z,7.01
2023-02-11T13:49:57.914Z,6.66
2023-02-11T13:52:27.285Z,7.10
2023-02-11T13:54:56.836Z,7.06
2023-02-11T13:57:40.035Z,7.06
2023-02-11T14:00:26.658Z,6.86
2023-02-11T14:03:45.952Z,7.09
2023-02-11T14:06:42.970Z,6.93
2023-02-11T14:09:39.583Z,7.21
2023-02-11T14:12:37.862Z,7.05
2023-02-11T14:15:28.046Z,7.20
2023-02-11T14:17:55.564Z,7.09
2023-02-11T14:20:51.353Z,7.16
2023-02-11T14:23:27.231Z,6.94
2023-02-11T14:26:29.060Z,7.27
2023-02-11T14:29:02.137Z,6.77
2023-02-11T14:31:36.398Z,6.97
2023-02-11T14:34:15.689Z,7.25
2023-02-11T14:37:04.976Z,7.32
2023-02-11T14:39:43.533Z,7.02
2023-02-11T14:42:18.984Z,7.26
2023-02-11T14:44:47.693Z,7.09
2023-02-11T14:47:18.569Z,7.29
2023-02-11T14:49:46.135Z,6.79
2023-02-11T14:52:19.501Z,7.05
2023-02-11T14:54:49.917Z,6.95
2023-02-11T14:57:20.034Z,7.11
2023-02-11T14:59:58.852Z,6.74
2023-02-11T15:02:30.395Z,6.86
2023-02-11T15:05:17.147Z,6.70
2023-02-11T15:07:46.706Z,6.92
2023-02-11T15:10:20.103Z,6.96
2023-02-11T15:12:50.171Z,6.70
2023-02-11T15:15:17.905Z,6.68
2023-02-11T15:17:45.521Z,7.13
2023-02-11T15:20:21.027Z,7.25
2023-02-11T15:22:49.317Z,7.12
2023-02-11T15:25:19.780Z,6.69
2023-02-11T15:27:50.871Z,6.59
2023-02-11T15:30:30.183Z,6.61
2023-02-11T15:33:00.088Z,6.86
2023-02-11T15:35:29.448Z,6.68
2023-02-11T15:37:58.305Z,6.67
2023-02-11T15:40:28.900Z,6.77
2023-02-11T15:42:59.373Z,6.48
2023-02-11T15:45:30.464Z,6.66
2023-02-11T15:48:01.403Z,6.58
2023-02-11T15:50:30.431Z,6.71
2023-02-11T15:53:00.646Z,6.62
2023-02-11T15:55:29.347Z,6.54
2023-02-11T15:57:59.640Z,6.55
2023-02-11T16:00:32.365Z,6.46
2023-02-11T16:03:00.028Z,6.72
2023-02-11T16:05:30.489Z,6.49
2023-02-11T16:07:58.909Z,6.68
2023-02-11T16:10:29.044Z,6.78
2023-02-11T16:13:04.275Z,6.46
2023-02-11T16:15:43.742Z,6.51
2023-02-11T16:18:28.524Z,6.50
2023-02-11T16:21:05.762Z,6.44
2023-02-11T16:23:35.666Z,6.63
2023-02-11T16:26:08.794Z,6.74
2023-02-11T16:28:38.274Z,6.49
2023-02-11T16:31:06.342Z,6.45
2023-02-11T16:33:34.025Z,6.41
2023-02-11T16:36:02.181Z,6.57
2023-02-11T16:38:31.159Z,6.38
2023-02-11T16:40:58.694Z,6.36
2023-02-11T16:43:26.350Z,6.55
2023-02-11T16:45:55.142Z,6.80
2023-02-11T16:48:22.697Z,6.59
2023-02-11T16:50:53.425Z,6.54
2023-02-11T16:53:23.986Z,6.41
2023-02-11T16:55:51.994Z,6.43
2023-02-11T16:58:19.963Z,6.39
2023-02-11T17:00:48.627Z,6.38
2023-02-11T17:03:20.815Z,6.64
2023-02-11T17:05:58.322Z,6.66
2023-02-11T17:08:26.155Z,6.88
2023-02-11T17:10:53.927Z,6.61
2023-02-11T17:13:21.579Z,6.40
2023-02-11T17:15:49.203Z,6.33
2023-02-11T17:18:18.041Z,6.31
2023-02-11T17:20:45.840Z,6.46
2023-02-11T17:23:13.494Z,6.41
2023-02-11T17:25:41.073Z,6.42
2023-02-11T17:28:12.084Z,6.35
2023-02-11T17:30:41.190Z,6.52
2023-02-11T17:33:09.562Z,6.33
2023-02-11T17:35:41.570Z,6.30
2023-02-11T17:38:09.072Z,6.27
2023-02-11T17:40:36.569Z,6.23
2023-02-11T17:43:04.450Z,6.40
2023-02-11T17:45:32.002Z,6.26
2023-02-11T17:47:59.551Z,6.41
2023-02-11T17:50:29.520Z,6.23
2023-02-11T17:52:58.668Z,6.21
2023-02-11T17:55:26.123Z,6.25
2023-02-11T17:57:53.717Z,6.29
2023-02-11T18:00:22.842Z,6.29
2023-02-11T18:02:50.381Z,6.27
2023-02-11T18:05:18.029Z,6.21
2023-02-11T18:07:45.549Z,6.22
2023-02-11T18:10:14.530Z,6.20
2023-02-11T18:12:42.099Z,6.26
2023-02-11T18:15:10.407Z,6.22
2023-02-11T18:17:37.884Z,6.50
2023-02-11T18:20:06.652Z,6.17
2023-02-11T18:22:39.078Z,6.13
2023-02-11T18:25:07.928Z,6.42
2023-02-11T18:27:37.223Z,6.33
2023-02-11T18:30:05.351Z,6.48
2023-02-11T18:32:33.040Z,6.50
2023-02-11T18:35:00.564Z,6.33
2023-02-11T18:37:28.052Z,6.42
2023-02-11T18:39:55.555Z,6.28
2023-02-11T18:42:23.299Z,6.31
2023-02-11T18:44:52.399Z,6.26
2023-02-11T18:47:19.863Z,6.30
2023-02-11T18:49:47.393Z,6.30
2023-02-11T18:52:14.867Z,6.43
2023-02-11T18:54:42.452Z,6.35
2023-02-11T18:57:10.169Z,6.29
2023-02-11T18:59:37.677Z,6.21
2023-02-11T19:02:06.522Z,6.21
2023-02-11T19:04:37.196Z,6.17
2023-02-11T19:07:04.805Z,6.24
2023-02-11T19:09:32.596Z,6.20
2023-02-11T19:12:01.867Z,6.21
2023-02-11T19:14:33.400Z,6.24
2023-02-11T19:17:02.935Z,6.25
2023-02-11T19:19:34.145Z,6.29
2023-02-11T19:22:02.700Z,6.25
2023-02-11T19:24:31.799Z,6.24
2023-02-11T19:27:00.975Z,6.22
2023-02-11T19:29:28.769Z,6.26
2023-02-11T19:31:56.440Z,6.27
2023-02-11T19:34:23.950Z,6.41
2023-02-11T19:36:54.545Z,6.26
2023-02-11T19:39:24.617Z,6.22
2023-02-11T19:41:52.215Z,6.23
2023-02-11T19:44:19.775Z,6.23
2023-02-11T19:46:48.409Z,6.24
2023-02-11T19:49:17.814Z,6.32
2023-02-11T19:51:45.281Z,6.27
2023-02-11T19:54:14.114Z,6.25
2023-02-11T19:56:41.589Z,6.18
2023-02-11T19:59:09.161Z,6.16
2023-02-11T20:01:37.513Z,6.15
2023-02-11T20:04:05.468Z,6.16
2023-02-11T20:06:33.842Z,6.17
2023-02-11T20:09:03.180Z,6.22
2023-02-11T20:11:33.181Z,6.26
2023-02-11T20:14:00.834Z,6.25
2023-02-11T20:16:46.132Z,6.23
2023-02-11T20:19:17.599Z,6.38
2023-02-11T20:21:47.053Z,6.44
2023-02-11T20:24:15.183Z,6.26
2023-02-11T20:26:45.204Z,6.45
2023-02-11T20:29:12.844Z,6.45
2023-02-11T20:31:40.670Z,6.48
2023-02-11T20:34:08.577Z,6.28
2023-02-11T20:36:38.032Z,6.30
2023-02-11T20:39:06.474Z,6.27
2023-02-11T20:41:35.476Z,6.18
2023-02-11T20:44:06.209Z,6.21
2023-02-11T20:46:34.776Z,6.23
2023-02-11T20:49:02.681Z,6.19
2023-02-11T20:51:32.608Z,6.26
2023-02-11T20:54:01.000Z,6.30
2023-02-11T20:56:30.258Z,6.32
2023-02-11T20:58:58.641Z,6.32
2023-02-11T21:01:30.477Z,6.36
2023-02-11T21:03:59.727Z,6.26
2023-02-11T21:06:31.368Z,6.24
2023-02-11T21:08:59.146Z,6.27
2023-02-11T21:11:26.867Z,6.35
2023-02-11T21:13:54.728Z,6.29
2023-02-11T21:16:22.532Z,6.30
2023-02-11T21:18:52.210Z,6.28
2023-02-11T21:21:20.705Z,6.24
2023-02-11T21:23:48.206Z,6.24
2023-02-11T21:26:16.944Z,6.25
2023-02-11T21:28:46.000Z,6.26
2023-02-11T21:31:20.477Z,6.25
2023-02-11T21:33:48.509Z,6.26
2023-02-11T21:36:17.645Z,6.30
2023-02-11T21:38:45.139Z,6.28
2023-02-11T21:41:12.901Z,6.31
2023-02-11T21:43:40.381Z,6.31
2023-02-11T21:46:09.985Z,6.25
2023-02-11T21:48:37.561Z,6.24
2023-02-11T21:51:06.082Z,6.25
2023-02-11T21:53:35.565Z,6.29
2023-02-11T21:56:07.235Z,6.24
2023-02-11T21:58:35.160Z,6.23
2023-02-11T22:01:02.714Z,6.22
2023-02-11T22:03:30.201Z,6.21
2023-02-11T22:05:57.863Z,6.23
2023-02-11T22:08:25.440Z,6.22
2023-02-11T22:10:54.241Z,6.25
2023-02-11T22:13:21.740Z,6.27
2023-02-11T22:15:58.370Z,6.24
2023-02-11T22:18:25.869Z,6.22
2023-02-11T22:20:59.428Z,6.22
2023-02-11T22:23:27.004Z,6.22
2023-02-11T22:25:56.119Z,6.36
2023-02-11T22:28:25.343Z,6.32
2023-02-11T22:30:56.669Z,6.32
2023-02-11T22:33:24.343Z,6.28
2023-02-11T22:35:59.349Z,6.25
2023-02-11T22:38:27.027Z,6.29
2023-02-11T22:40:56.097Z,6.28
2023-02-11T22:43:23.800Z,6.24
2023-02-11T22:45:51.738Z,6.31
2023-02-11T22:48:22.087Z,6.26
2023-02-11T22:50:50.558Z,6.31
2023-02-11T22:53:18.028Z,6.31
2023-02-11T22:55:45.524Z,6.32
2023-02-11T22:58:14.290Z,6.47
2023-02-11T23:00:42.729Z,6.50
2023-02-11T23:03:11.449Z,6.47
2023-02-11T23:05:39.861Z,6.53
2023-02-11T23:08:07.931Z,6.45
2023-02-11T23:10:36.345Z,6.42
2023-02-11T23:13:04.384Z,6.67
2023-02-11T23:15:33.488Z,6.69
2023-02-11T23:18:01.130Z,6.69
2023-02-11T23:20:28.861Z,6.42
2023-02-11T23:22:56.448Z,6.46
2023-02-11T23:25:23.909Z,6.65
2023-02-11T23:27:51.406Z,6.41
2023-02-11T23:30:19.993Z,6.48
2023-02-11T23:32:49.019Z,6.47
2023-02-11T23:35:22.057Z,6.31
2023-02-11T23:37:50.527Z,6.40
2023-02-11T23:40:18.439Z,6.35
2023-02-11T23:42:47.521Z,6.26
2023-02-11T23:45:15.270Z,6.32
2023-02-11T23:47:42.751Z,6.32
2023-02-11T23:50:12.628Z,6.28
2023-02-11T23:52:40.100Z,6.31
2023-02-11T23:55:08.044Z,6.32
2023-02-11T23:57:36.196Z,6.26
